sensor_id;sensor_type;location;lat;lon;timestamp;pressure;altitude;pressure_sealevel;temperature;humidity
64844;BME280;51310;52.198;5.422;2023-04-15T00:01:25;100668.25;;;7.45;100.00
64844;BME280;51310;52.198;5.422;2023-04-15T00:03:52;100671.69;;;7.36;100.00
64844;BME280;51310;52.198;5.422;2023-04-15T00:06:19;100674.31;;;7.29;100.00
64844;BME280;51310;52.198;5.422;2023-04-15T00:08:46;100675.28;;;7.38;100.00
64844;BME280;51310;52.198;5.422;2023-04-15T00:11:13;100678.66;;;7.46;100.00
64844;BME280;51310;52.198;5.422;2023-04-15T00:13:39;100682.25;;;7.39;100.00
64844;BME280;51310;52.198;5.422;2023-04-15T00:16:06;100673.84;;;7.25;100.00
64844;BME280;51310;52.198;5.422;2023-04-15T00:18:33;100677.81;;;7.14;100.00
64844;BME280;51310;52.198;5.422;2023-04-15T00:20:59;100674.75;;;7.09;100.00
64844;BME280;51310;52.198;5.422;2023-04-15T00:23:25;100679.69;;;7.08;100.00
64844;BME280;51310;52.198;5.422;2023-04-15T00:25:51;100675.56;;;7.01;100.00
64844;BME280;51310;52.198;5.422;2023-04-15T00:28:17;100674.00;;;7.10;100.00
64844;BME280;51310;52.198;5.422;2023-04-15T00:30:44;100679.97;;;7.02;100.00
64844;BME280;51310;52.198;5.422;2023-04-15T00:33:10;100669.72;;;7.02;100.00
64844;BME280;51310;52.198;5.422;2023-04-15T00:35:36;100668.00;;;6.94;100.00
64844;BME280;51310;52.198;5.422;2023-04-15T00:38:06;100665.50;;;6.87;100.00
64844;BME280;51310;52.198;5.422;2023-04-15T00:40:33;100668.56;;;6.91;100.00
64844;BME280;51310;52.198;5.422;2023-04-15T00:42:59;100676.16;;;6.83;100.00
64844;BME280;51310;52.198;5.422;2023-04-15T00:45:25;100662.34;;;6.73;100.00
64844;BME280;51310;52.198;5.422;2023-04-15T00:47:53;100671.09;;;6.75;100.00
64844;BME280;51310;52.198;5.422;2023-04-15T00:50:18;100676.88;;;6.82;100.00
64844;BME280;51310;52.198;5.422;2023-04-15T00:52:44;100668.63;;;6.68;100.00
64844;BME280;51310;52.198;5.422;2023-04-15T00:55:10;100671.69;;;6.73;100.00
64844;BME280;51310;52.198;5.422;2023-04-15T00:57:38;100673.06;;;6.62;100.00
64844;BME280;51310;52.198;5.422;2023-04-15T01:00:05;100674.72;;;6.62;100.00
64844;BME280;51310;52.198;5.422;2023-04-15T01:02:34;100676.03;;;6.58;100.00
64844;BME280;51310;52.198;5.422;2023-04-15T01:04:59;100673.88;;;6.54;100.00
64844;BME280;51310;52.198;5.422;2023-04-15T01:07:25;100677.97;;;6.68;100.00
64844;BME280;51310;52.198;5.422;2023-04-15T01:09:52;100678.84;;;6.68;100.00
64844;BME280;51310;52.198;5.422;2023-04-15T01:12:19;100678.59;;;6.58;100.00
64844;BME280;51310;52.198;5.422;2023-04-15T01:14:45;100682.78;;;6.42;100.00
64844;BME280;51310;52.198;5.422;2023-04-15T01:17:11;100675.09;;;6.42;100.00
64844;BME280;51310;52.198;5.422;2023-04-15T01:19:37;100676.59;;;6.40;100.00
64844;BME280;51310;52.198;5.422;2023-04-15T01:22:04;100684.69;;;6.28;100.00
64844;BME280;51310;52.198;5.422;2023-04-15T01:24:32;100678.78;;;6.36;100.00
64844;BME280;51310;52.198;5.422;2023-04-15T01:26:58;100677.97;;;6.29;100.00
64844;BME280;51310;52.198;5.422;2023-04-15T01:29:24;100686.88;;;6.09;100.00
64844;BME280;51310;52.198;5.422;2023-04-15T01:31:54;100669.97;;;6.03;100.00
64844;BME280;51310;52.198;5.422;2023-04-15T01:34:20;100672.91;;;5.99;100.00
64844;BME280;51310;52.198;5.422;2023-04-15T01:36:47;100679.47;;;5.89;100.00
64844;BME280;51310;52.198;5.422;2023-04-15T01:39:13;100679.75;;;5.76;100.00
64844;BME280;51310;52.198;5.422;2023-04-15T01:41:39;100687.13;;;5.66;100.00
64844;BME280;51310;52.198;5.422;2023-04-15T01:44:07;100685.00;;;5.55;100.00
64844;BME280;51310;52.198;5.422;2023-04-15T01:46:33;100688.41;;;5.63;100.00
64844;BME280;51310;52.198;5.422;2023-04-15T01:48:59;100682.59;;;5.64;100.00
64844;BME280;51310;52.198;5.422;2023-04-15T01:51:25;100691.34;;;5.59;100.00
64844;BME280;51310;52.198;5.422;2023-04-15T01:53:51;100680.06;;;5.57;100.00
64844;BME280;51310;52.198;5.422;2023-04-15T01:56:17;100691.91;;;5.56;100.00
64844;BME280;51310;52.198;5.422;2023-04-15T01:58:43;100690.25;;;5.57;100.00
64844;BME280;51310;52.198;5.422;2023-04-15T02:01:09;100690.13;;;5.55;100.00
64844;BME280;51310;52.198;5.422;2023-04-15T02:03:36;100684.84;;;5.46;100.00
64844;BME280;51310;52.198;5.422;2023-04-15T02:06:02;100689.78;;;5.45;100.00
64844;BME280;51310;52.198;5.422;2023-04-15T02:08:29;100693.31;;;5.31;100.00
64844;BME280;51310;52.198;5.422;2023-04-15T02:10:54;100689.84;;;5.30;100.00
64844;BME280;51310;52.198;5.422;2023-04-15T02:13:20;100692.63;;;5.18;100.00
64844;BME280;51310;52.198;5.422;2023-04-15T02:15:47;100691.56;;;5.08;100.00
64844;BME280;51310;52.198;5.422;2023-04-15T02:18:15;100687.78;;;4.98;100.00
64844;BME280;51310;52.198;5.422;2023-04-15T02:20:41;100699.78;;;4.99;100.00
64844;BME280;51310;52.198;5.422;2023-04-15T02:23:08;100694.16;;;4.94;100.00
64844;BME280;51310;52.198;5.422;2023-04-15T02:25:34;100700.88;;;5.01;100.00
64844;BME280;51310;52.198;5.422;2023-04-15T02:27:59;100701.66;;;4.92;100.00
64844;BME280;51310;52.198;5.422;2023-04-15T02:30:25;100700.94;;;4.86;100.00
64844;BME280;51310;52.198;5.422;2023-04-15T02:32:51;100706.25;;;4.73;100.00
64844;BME280;51310;52.198;5.422;2023-04-15T02:35:17;100713.00;;;4.73;100.00
64844;BME280;51310;52.198;5.422;2023-04-15T02:37:46;100711.88;;;4.64;100.00
64844;BME280;51310;52.198;5.422;2023-04-15T02:40:12;100702.81;;;4.59;100.00
64844;BME280;51310;52.198;5.422;2023-04-15T02:42:39;100713.19;;;4.53;100.00
64844;BME280;51310;52.198;5.422;2023-04-15T02:45:06;100722.28;;;4.51;100.00
64844;BME280;51310;52.198;5.422;2023-04-15T02:47:35;100715.75;;;4.46;100.00
64844;BME280;51310;52.198;5.422;2023-04-15T02:50:05;100720.47;;;4.43;100.00
64844;BME280;51310;52.198;5.422;2023-04-15T02:52:31;100730.66;;;4.36;100.00
64844;BME280;51310;52.198;5.422;2023-04-15T02:54:57;100725.22;;;4.32;100.00
64844;BME280;51310;52.198;5.422;2023-04-15T02:57:27;100734.66;;;4.34;100.00
64844;BME280;51310;52.198;5.422;2023-04-15T02:59:56;100732.66;;;4.31;100.00
64844;BME280;51310;52.198;5.422;2023-04-15T03:02:22;100731.94;;;4.32;100.00
64844;BME280;51310;52.198;5.422;2023-04-15T03:04:48;100738.84;;;4.33;100.00
64844;BME280;51310;52.198;5.422;2023-04-15T03:07:13;100733.38;;;4.23;100.00
64844;BME280;51310;52.198;5.422;2023-04-15T03:09:39;100734.47;;;4.25;100.00
64844;BME280;51310;52.198;5.422;2023-04-15T03:12:06;100741.94;;;4.16;100.00
64844;BME280;51310;52.198;5.422;2023-04-15T03:14:31;100743.75;;;4.17;100.00
64844;BME280;51310;52.198;5.422;2023-04-15T03:16:57;100747.91;;;4.09;100.00
64844;BME280;51310;52.198;5.422;2023-04-15T03:19:24;100743.00;;;4.04;100.00
64844;BME280;51310;52.198;5.422;2023-04-15T03:21:50;100752.81;;;4.08;100.00
64844;BME280;51310;52.198;5.422;2023-04-15T03:24:17;100761.56;;;4.10;100.00
64844;BME280;51310;52.198;5.422;2023-04-15T03:26:43;100753.56;;;4.14;100.00
64844;BME280;51310;52.198;5.422;2023-04-15T03:29:08;100757.72;;;3.99;100.00
64844;BME280;51310;52.198;5.422;2023-04-15T03:31:34;100757.00;;;3.93;100.00
64844;BME280;51310;52.198;5.422;2023-04-15T03:34:00;100756.81;;;3.99;100.00
64844;BME280;51310;52.198;5.422;2023-04-15T03:36:28;100763.00;;;3.94;100.00
64844;BME280;51310;52.198;5.422;2023-04-15T03:38:54;100763.69;;;3.85;100.00
64844;BME280;51310;52.198;5.422;2023-04-15T03:41:21;100763.69;;;3.85;100.00
64844;BME280;51310;52.198;5.422;2023-04-15T03:43:47;100764.75;;;3.73;100.00
64844;BME280;51310;52.198;5.422;2023-04-15T03:46:12;100768.38;;;3.68;100.00
64844;BME280;51310;52.198;5.422;2023-04-15T03:48:38;100771.59;;;3.60;100.00
64844;BME280;51310;52.198;5.422;2023-04-15T03:51:04;100773.41;;;3.54;100.00
64844;BME280;51310;52.198;5.422;2023-04-15T03:53:29;100785.00;;;3.52;100.00
64844;BME280;51310;52.198;5.422;2023-04-15T03:55:55;100781.22;;;3.48;100.00
64844;BME280;51310;52.198;5.422;2023-04-15T03:58:21;100784.03;;;3.37;100.00
64844;BME280;51310;52.198;5.422;2023-04-15T04:00:47;100780.97;;;3.39;100.00
64844;BME280;51310;52.198;5.422;2023-04-15T04:03:12;100783.34;;;3.45;100.00
64844;BME280;51310;52.198;5.422;2023-04-15T04:05:38;100794.41;;;3.38;100.00
64844;BME280;51310;52.198;5.422;2023-04-15T04:08:06;100788.03;;;3.35;100.00
64844;BME280;51310;52.198;5.422;2023-04-15T04:10:31;100788.97;;;3.42;100.00
64844;BME280;51310;52.198;5.422;2023-04-15T04:12:57;100800.47;;;3.46;100.00
64844;BME280;51310;52.198;5.422;2023-04-15T04:15:23;100799.69;;;3.40;100.00
64844;BME280;51310;52.198;5.422;2023-04-15T04:17:48;100809.25;;;3.28;100.00
64844;BME280;51310;52.198;5.422;2023-04-15T04:20:14;100805.59;;;3.26;100.00
64844;BME280;51310;52.198;5.422;2023-04-15T04:22:40;100809.41;;;3.22;100.00
64844;BME280;51310;52.198;5.422;2023-04-15T04:25:07;100820.44;;;3.16;100.00
64844;BME280;51310;52.198;5.422;2023-04-15T04:27:35;100823.38;;;3.19;100.00
64844;BME280;51310;52.198;5.422;2023-04-15T04:30:00;100827.38;;;3.24;100.00
64844;BME280;51310;52.198;5.422;2023-04-15T04:32:26;100826.16;;;3.27;100.00
64844;BME280;51310;52.198;5.422;2023-04-15T04:34:52;100824.16;;;3.32;100.00
64844;BME280;51310;52.198;5.422;2023-04-15T04:37:18;100830.91;;;3.32;100.00
64844;BME280;51310;52.198;5.422;2023-04-15T04:39:43;100826.53;;;3.31;100.00
64844;BME280;51310;52.198;5.422;2023-04-15T04:42:09;100839.28;;;3.38;100.00
64844;BME280;51310;52.198;5.422;2023-04-15T04:44:35;100850.53;;;3.33;100.00
64844;BME280;51310;52.198;5.422;2023-04-15T04:47:00;100852.72;;;3.37;100.00
64844;BME280;51310;52.198;5.422;2023-04-15T04:49:26;100864.41;;;3.42;100.00
64844;BME280;51310;52.198;5.422;2023-04-15T04:51:52;100867.06;;;3.36;100.00
64844;BME280;51310;52.198;5.422;2023-04-15T04:54:18;100866.72;;;3.33;100.00
64844;BME280;51310;52.198;5.422;2023-04-15T04:56:43;100871.38;;;3.30;100.00
64844;BME280;51310;52.198;5.422;2023-04-15T04:59:09;100877.88;;;3.21;100.00
64844;BME280;51310;52.198;5.422;2023-04-15T05:01:35;100878.84;;;3.28;100.00
64844;BME280;51310;52.198;5.422;2023-04-15T05:04:00;100883.41;;;3.31;100.00
64844;BME280;51310;52.198;5.422;2023-04-15T05:06:26;100886.91;;;3.39;100.00
64844;BME280;51310;52.198;5.422;2023-04-15T05:08:54;100888.31;;;3.37;100.00
64844;BME280;51310;52.198;5.422;2023-04-15T05:11:21;100893.28;;;3.42;100.00
64844;BME280;51310;52.198;5.422;2023-04-15T05:13:46;100900.25;;;3.51;100.00
64844;BME280;51310;52.198;5.422;2023-04-15T05:16:12;100904.47;;;3.57;100.00
64844;BME280;51310;52.198;5.422;2023-04-15T05:18:38;100908.69;;;3.64;100.00
64844;BME280;51310;52.198;5.422;2023-04-15T05:21:04;100910.16;;;3.69;100.00
64844;BME280;51310;52.198;5.422;2023-04-15T05:23:30;100917.88;;;3.76;100.00
64844;BME280;51310;52.198;5.422;2023-04-15T05:25:55;100914.97;;;3.80;100.00
64844;BME280;51310;52.198;5.422;2023-04-15T05:28:21;100916.09;;;3.82;100.00
64844;BME280;51310;52.198;5.422;2023-04-15T05:30:47;100913.38;;;3.95;100.00
64844;BME280;51310;52.198;5.422;2023-04-15T05:33:12;100926.53;;;3.98;100.00
64844;BME280;51310;52.198;5.422;2023-04-15T05:35:38;100922.53;;;4.00;100.00
64844;BME280;51310;52.198;5.422;2023-04-15T05:38:04;100925.09;;;4.07;100.00
64844;BME280;51310;52.198;5.422;2023-04-15T05:40:30;100938.38;;;4.12;100.00
64844;BME280;51310;52.198;5.422;2023-04-15T05:42:56;100947.69;;;4.19;100.00
64844;BME280;51310;52.198;5.422;2023-04-15T05:45:21;100949.00;;;4.29;100.00
64844;BME280;51310;52.198;5.422;2023-04-15T05:47:47;100952.66;;;4.24;100.00
64844;BME280;51310;52.198;5.422;2023-04-15T05:50:15;100951.00;;;4.25;100.00
64844;BME280;51310;52.198;5.422;2023-04-15T05:52:41;100946.81;;;4.25;100.00
64844;BME280;51310;52.198;5.422;2023-04-15T05:55:07;100953.19;;;4.22;100.00
64844;BME280;51310;52.198;5.422;2023-04-15T05:57:33;100958.63;;;4.18;100.00
64844;BME280;51310;52.198;5.422;2023-04-15T05:59:58;100958.22;;;4.15;100.00
64844;BME280;51310;52.198;5.422;2023-04-15T06:02:24;100964.25;;;4.15;100.00
64844;BME280;51310;52.198;5.422;2023-04-15T06:04:51;100972.59;;;4.14;100.00
64844;BME280;51310;52.198;5.422;2023-04-15T06:07:16;100969.16;;;4.14;100.00
64844;BME280;51310;52.198;5.422;2023-04-15T06:09:42;100973.34;;;4.13;100.00
64844;BME280;51310;52.198;5.422;2023-04-15T06:12:09;100980.59;;;4.10;100.00
64844;BME280;51310;52.198;5.422;2023-04-15T06:14:37;100991.88;;;4.12;100.00
64844;BME280;51310;52.198;5.422;2023-04-15T06:17:03;100998.63;;;4.11;100.00
64844;BME280;51310;52.198;5.422;2023-04-15T06:19:29;101001.91;;;4.10;100.00
64844;BME280;51310;52.198;5.422;2023-04-15T06:21:55;101005.19;;;4.17;100.00
64844;BME280;51310;52.198;5.422;2023-04-15T06:24:21;101009.44;;;4.23;100.00
64844;BME280;51310;52.198;5.422;2023-04-15T06:26:46;101003.47;;;4.30;100.00
64844;BME280;51310;52.198;5.422;2023-04-15T06:29:12;101012.22;;;4.39;100.00
64844;BME280;51310;52.198;5.422;2023-04-15T06:31:38;101018.66;;;4.50;100.00
64844;BME280;51310;52.198;5.422;2023-04-15T06:34:04;101018.69;;;4.64;100.00
64844;BME280;51310;52.198;5.422;2023-04-15T06:36:30;101021.28;;;4.79;100.00
64844;BME280;51310;52.198;5.422;2023-04-15T06:38:56;101022.25;;;4.86;100.00
64844;BME280;51310;52.198;5.422;2023-04-15T06:41:22;101025.69;;;4.94;100.00
64844;BME280;51310;52.198;5.422;2023-04-15T06:43:48;101028.66;;;5.11;100.00
64844;BME280;51310;52.198;5.422;2023-04-15T06:46:14;101027.03;;;5.19;100.00
64844;BME280;51310;52.198;5.422;2023-04-15T06:48:40;101032.69;;;5.31;100.00
64844;BME280;51310;52.198;5.422;2023-04-15T06:51:05;101048.19;;;5.40;100.00
64844;BME280;51310;52.198;5.422;2023-04-15T06:53:31;101040.91;;;5.50;100.00
64844;BME280;51310;52.198;5.422;2023-04-15T06:55:57;101052.81;;;5.64;100.00
64844;BME280;51310;52.198;5.422;2023-04-15T06:58:22;101044.94;;;5.76;100.00
64844;BME280;51310;52.198;5.422;2023-04-15T07:00:48;101051.50;;;5.89;100.00
64844;BME280;51310;52.198;5.422;2023-04-15T07:03:14;101049.53;;;6.01;100.00
64844;BME280;51310;52.198;5.422;2023-04-15T07:05:40;101047.47;;;6.12;100.00
64844;BME280;51310;52.198;5.422;2023-04-15T07:08:06;101052.03;;;6.22;100.00
64844;BME280;51310;52.198;5.422;2023-04-15T07:10:33;101067.50;;;6.38;100.00
64844;BME280;51310;52.198;5.422;2023-04-15T07:12:59;101062.00;;;6.49;100.00
64844;BME280;51310;52.198;5.422;2023-04-15T07:15:26;101064.00;;;6.52;100.00
64844;BME280;51310;52.198;5.422;2023-04-15T07:17:51;101074.59;;;6.48;100.00
64844;BME280;51310;52.198;5.422;2023-04-15T07:20:17;101070.03;;;6.52;100.00
64844;BME280;51310;52.198;5.422;2023-04-15T07:22:43;101072.94;;;6.55;100.00
64844;BME280;51310;52.198;5.422;2023-04-15T07:25:09;101082.41;;;6.64;100.00
64844;BME280;51310;52.198;5.422;2023-04-15T07:27:35;101082.03;;;6.68;100.00
64844;BME280;51310;52.198;5.422;2023-04-15T07:30:01;101087.28;;;6.84;100.00
64844;BME280;51310;52.198;5.422;2023-04-15T07:32:27;101086.66;;;7.01;100.00
64844;BME280;51310;52.198;5.422;2023-04-15T07:34:53;101093.50;;;7.16;100.00
64844;BME280;51310;52.198;5.422;2023-04-15T07:37:18;101089.63;;;7.27;100.00
64844;BME280;51310;52.198;5.422;2023-04-15T07:39:44;101092.63;;;7.38;100.00
64844;BME280;51310;52.198;5.422;2023-04-15T07:42:10;101092.75;;;7.47;100.00
64844;BME280;51310;52.198;5.422;2023-04-15T07:44:36;101098.88;;;7.64;100.00
64844;BME280;51310;52.198;5.422;2023-04-15T07:47:02;101102.53;;;7.66;100.00
64844;BME280;51310;52.198;5.422;2023-04-15T07:49:27;101097.91;;;7.70;100.00
64844;BME280;51310;52.198;5.422;2023-04-15T07:51:53;101115.75;;;7.85;100.00
64844;BME280;51310;52.198;5.422;2023-04-15T07:54:19;101113.13;;;7.92;100.00
64844;BME280;51310;52.198;5.422;2023-04-15T07:56:45;101110.66;;;7.77;100.00
64844;BME280;51310;52.198;5.422;2023-04-15T07:59:11;101113.19;;;7.85;100.00
64844;BME280;51310;52.198;5.422;2023-04-15T08:01:37;101116.84;;;7.87;100.00
64844;BME280;51310;52.198;5.422;2023-04-15T08:04:03;101122.47;;;7.91;100.00
64844;BME280;51310;52.198;5.422;2023-04-15T08:06:29;101125.63;;;7.81;100.00
64844;BME280;51310;52.198;5.422;2023-04-15T08:08:55;101124.66;;;7.88;100.00
64844;BME280;51310;52.198;5.422;2023-04-15T08:11:21;101130.56;;;7.87;100.00
64844;BME280;51310;52.198;5.422;2023-04-15T08:13:47;101124.63;;;7.95;100.00
64844;BME280;51310;52.198;5.422;2023-04-15T08:16:22;101136.38;;;7.93;100.00
64844;BME280;51310;52.198;5.422;2023-04-15T08:18:50;101133.03;;;7.94;100.00
64844;BME280;51310;52.198;5.422;2023-04-15T08:21:18;101144.25;;;7.95;100.00
64844;BME280;51310;52.198;5.422;2023-04-15T08:23:46;101138.00;;;8.16;100.00
64844;BME280;51310;52.198;5.422;2023-04-15T08:26:12;101146.03;;;8.19;100.00
64844;BME280;51310;52.198;5.422;2023-04-15T08:28:41;101138.78;;;8.31;100.00
64844;BME280;51310;52.198;5.422;2023-04-15T08:31:07;101143.19;;;8.32;100.00
64844;BME280;51310;52.198;5.422;2023-04-15T08:33:34;101142.34;;;8.47;100.00
64844;BME280;51310;52.198;5.422;2023-04-15T08:35:59;101152.59;;;8.47;100.00
64844;BME280;51310;52.198;5.422;2023-04-15T08:38:25;101148.88;;;8.68;100.00
64844;BME280;51310;52.198;5.422;2023-04-15T08:40:51;101155.44;;;8.73;100.00
64844;BME280;51310;52.198;5.422;2023-04-15T08:43:27;101161.06;;;8.62;100.00
64844;BME280;51310;52.198;5.422;2023-04-15T08:45:55;101155.53;;;8.66;100.00
64844;BME280;51310;52.198;5.422;2023-04-15T08:48:27;101165.16;;;8.53;100.00
64844;BME280;51310;52.198;5.422;2023-04-15T08:50:53;101181.19;;;8.66;100.00
64844;BME280;51310;52.198;5.422;2023-04-15T08:53:20;101175.69;;;8.79;100.00
64844;BME280;51310;52.198;5.422;2023-04-15T08:55:51;101172.00;;;8.84;100.00
64844;BME280;51310;52.198;5.422;2023-04-15T08:58:21;101181.09;;;8.89;100.00
64844;BME280;51310;52.198;5.422;2023-04-15T09:00:47;101188.75;;;8.96;100.00
64844;BME280;51310;52.198;5.422;2023-04-15T09:03:13;101185.81;;;8.93;100.00
64844;BME280;51310;52.198;5.422;2023-04-15T09:05:39;101217.28;;;9.15;100.00
64844;BME280;51310;52.198;5.422;2023-04-15T09:08:05;101193.63;;;9.18;100.00
64844;BME280;51310;52.198;5.422;2023-04-15T09:10:32;101199.88;;;9.29;100.00
64844;BME280;51310;52.198;5.422;2023-04-15T09:12:58;101197.25;;;9.36;100.00
64844;BME280;51310;52.198;5.422;2023-04-15T09:15:27;101204.59;;;9.33;100.00
64844;BME280;51310;52.198;5.422;2023-04-15T09:17:55;101219.88;;;9.31;100.00
64844;BME280;51310;52.198;5.422;2023-04-15T09:20:22;101207.78;;;9.46;100.00
64844;BME280;51310;52.198;5.422;2023-04-15T09:22:49;101216.38;;;9.47;100.00
64844;BME280;51310;52.198;5.422;2023-04-15T09:28:00;101219.97;;;9.40;100.00
64844;BME280;51310;52.198;5.422;2023-04-15T09:30:27;101232.13;;;9.50;100.00
64844;BME280;51310;52.198;5.422;2023-04-15T09:32:59;101231.59;;;9.61;100.00
64844;BME280;51310;52.198;5.422;2023-04-15T09:35:27;101232.38;;;9.44;100.00
64844;BME280;51310;52.198;5.422;2023-04-15T09:38:08;101228.81;;;9.51;100.00
64844;BME280;51310;52.198;5.422;2023-04-15T09:40:40;101230.03;;;9.54;100.00
64844;BME280;51310;52.198;5.422;2023-04-15T09:43:09;101245.63;;;9.56;100.00
64844;BME280;51310;52.198;5.422;2023-04-15T09:45:37;101232.34;;;9.60;100.00
64844;BME280;51310;52.198;5.422;2023-04-15T09:48:24;101240.91;;;9.68;100.00
64844;BME280;51310;52.198;5.422;2023-04-15T09:50:52;101237.88;;;9.72;100.00
64844;BME280;51310;52.198;5.422;2023-04-15T09:53:23;101236.66;;;9.68;100.00
64844;BME280;51310;52.198;5.422;2023-04-15T09:55:58;101248.13;;;9.88;100.00
64844;BME280;51310;52.198;5.422;2023-04-15T09:58:31;101244.75;;;9.80;100.00
64844;BME280;51310;52.198;5.422;2023-04-15T10:00:59;101254.78;;;9.85;100.00
64844;BME280;51310;52.198;5.422;2023-04-15T10:03:32;101251.31;;;10.10;100.00
64844;BME280;51310;52.198;5.422;2023-04-15T10:06:00;101253.06;;;10.26;100.00
64844;BME280;51310;52.198;5.422;2023-04-15T10:08:29;101261.69;;;10.27;100.00
64844;BME280;51310;52.198;5.422;2023-04-15T10:10:55;101267.94;;;10.62;100.00
64844;BME280;51310;52.198;5.422;2023-04-15T10:13:28;101259.53;;;10.72;100.00
64844;BME280;51310;52.198;5.422;2023-04-15T10:15:59;101246.41;;;10.86;100.00
64844;BME280;51310;52.198;5.422;2023-04-15T10:18:27;101251.41;;;10.85;100.00
64844;BME280;51310;52.198;5.422;2023-04-15T10:20:54;101261.56;;;11.01;100.00
64844;BME280;51310;52.198;5.422;2023-04-15T10:23:21;101275.28;;;11.17;100.00
64844;BME280;51310;52.198;5.422;2023-04-15T10:25:52;101256.69;;;10.44;100.00
64844;BME280;51310;52.198;5.422;2023-04-15T10:28:21;101271.56;;;10.56;100.00
64844;BME280;51310;52.198;5.422;2023-04-15T10:30:47;101275.34;;;10.51;100.00
64844;BME280;51310;52.198;5.422;2023-04-15T10:33:18;101266.38;;;10.80;100.00
64844;BME280;51310;52.198;5.422;2023-04-15T10:35:47;101270.06;;;10.91;100.00
64844;BME280;51310;52.198;5.422;2023-04-15T10:41:19;101277.16;;;10.94;100.00
64844;BME280;51310;52.198;5.422;2023-04-15T10:44:03;101273.59;;;11.26;100.00
64844;BME280;51310;52.198;5.422;2023-04-15T10:46:38;101309.56;;;10.83;100.00
64844;BME280;51310;52.198;5.422;2023-04-15T10:49:24;101288.56;;;10.71;100.00
64844;BME280;51310;52.198;5.422;2023-04-15T10:51:54;101286.50;;;11.26;100.00
64844;BME280;51310;52.198;5.422;2023-04-15T10:54:32;101292.44;;;11.43;100.00
64844;BME280;51310;52.198;5.422;2023-04-15T10:59:30;101289.34;;;11.21;100.00
64844;BME280;51310;52.198;5.422;2023-04-15T11:02:06;101301.38;;;11.38;100.00
64844;BME280;51310;52.198;5.422;2023-04-15T11:04:58;101305.91;;;11.32;100.00
64844;BME280;51310;52.198;5.422;2023-04-15T11:12:53;101312.41;;;11.19;100.00
64844;BME280;51310;52.198;5.422;2023-04-15T11:15:45;101327.53;;;11.16;100.00
64844;BME280;51310;52.198;5.422;2023-04-15T11:20:41;101309.69;;;11.26;100.00
64844;BME280;51310;52.198;5.422;2023-04-15T11:23:08;101324.91;;;10.99;100.00
64844;BME280;51310;52.198;5.422;2023-04-15T11:25:35;101319.63;;;10.97;100.00
64844;BME280;51310;52.198;5.422;2023-04-15T11:28:03;101313.13;;;11.18;100.00
64844;BME280;51310;52.198;5.422;2023-04-15T11:30:34;101318.78;;;11.32;100.00
64844;BME280;51310;52.198;5.422;2023-04-15T11:33:03;101320.66;;;11.50;100.00
64844;BME280;51310;52.198;5.422;2023-04-15T11:35:30;101318.97;;;11.42;100.00
64844;BME280;51310;52.198;5.422;2023-04-15T11:37:56;101328.19;;;11.40;100.00
64844;BME280;51310;52.198;5.422;2023-04-15T11:40:25;101318.91;;;11.16;100.00
64844;BME280;51310;52.198;5.422;2023-04-15T11:43:11;101322.19;;;11.65;100.00
64844;BME280;51310;52.198;5.422;2023-04-15T11:45:58;101320.94;;;11.53;100.00
64844;BME280;51310;52.198;5.422;2023-04-15T11:48:30;101324.28;;;11.52;100.00
64844;BME280;51310;52.198;5.422;2023-04-15T11:50:59;101316.84;;;11.46;100.00
64844;BME280;51310;52.198;5.422;2023-04-15T11:53:46;101338.78;;;11.17;100.00
64844;BME280;51310;52.198;5.422;2023-04-15T11:56:21;101354.69;;;11.21;100.00
64844;BME280;51310;52.198;5.422;2023-04-15T11:58:51;101339.56;;;11.42;100.00
64844;BME280;51310;52.198;5.422;2023-04-15T12:01:17;101343.06;;;11.42;100.00
64844;BME280;51310;52.198;5.422;2023-04-15T12:03:47;101348.53;;;11.45;100.00
64844;BME280;51310;52.198;5.422;2023-04-15T12:14:04;101368.16;;;11.69;100.00
64844;BME280;51310;52.198;5.422;2023-04-15T12:16:33;101372.56;;;11.70;100.00
64844;BME280;51310;52.198;5.422;2023-04-15T12:19:04;101362.09;;;11.78;100.00
64844;BME280;51310;52.198;5.422;2023-04-15T12:21:34;101368.44;;;11.64;100.00
64844;BME280;51310;52.198;5.422;2023-04-15T12:24:04;101378.56;;;11.45;100.00
64844;BME280;51310;52.198;5.422;2023-04-15T12:26:44;101388.69;;;11.35;100.00
64844;BME280;51310;52.198;5.422;2023-04-15T12:29:12;101387.16;;;11.28;100.00
64844;BME280;51310;52.198;5.422;2023-04-15T12:32:08;101388.03;;;11.20;100.00
64844;BME280;51310;52.198;5.422;2023-04-15T12:37:11;101380.69;;;11.40;100.00
64844;BME280;51310;52.198;5.422;2023-04-15T12:39:43;101411.38;;;11.21;100.00
64844;BME280;51310;52.198;5.422;2023-04-15T12:42:10;101398.59;;;11.14;100.00
64844;BME280;51310;52.198;5.422;2023-04-15T12:44:37;101399.47;;;10.97;100.00
64844;BME280;51310;52.198;5.422;2023-04-15T12:47:04;101394.94;;;11.12;100.00
64844;BME280;51310;52.198;5.422;2023-04-15T12:49:31;101403.41;;;11.02;100.00
64844;BME280;51310;52.198;5.422;2023-04-15T12:51:59;101403.47;;;11.20;100.00
64844;BME280;51310;52.198;5.422;2023-04-15T12:54:26;101416.75;;;11.07;100.00
64844;BME280;51310;52.198;5.422;2023-04-15T12:56:53;101411.31;;;11.04;100.00
64844;BME280;51310;52.198;5.422;2023-04-15T12:59:20;101420.75;;;11.21;100.00
64844;BME280;51310;52.198;5.422;2023-04-15T13:01:47;101425.78;;;11.19;100.00
64844;BME280;51310;52.198;5.422;2023-04-15T13:04:14;101427.88;;;10.90;100.00
64844;BME280;51310;52.198;5.422;2023-04-15T13:06:40;101423.59;;;10.82;100.00
64844;BME280;51310;52.198;5.422;2023-04-15T13:09:06;101429.59;;;10.98;100.00
64844;BME280;51310;52.198;5.422;2023-04-15T13:11:33;101446.56;;;10.72;100.00
64844;BME280;51310;52.198;5.422;2023-04-15T13:14:04;101447.53;;;10.40;100.00
64844;BME280;51310;52.198;5.422;2023-04-15T13:16:31;101444.03;;;10.40;100.00